Time;durP1;ratioP1;P1;durP2;ratioP2;P2;SDS_P1;SDS_P2;PMS_P1;PMS_P2;Temp;Humidity;BMP_temperature;BMP_pressure;BME280_temperature;BME280_humidity;BME280_pressure;Samples;Min_cycle;Max_cycle;Signal;HPM_P1;HPM_P2
2024/02/02 00:01:20;;;;;;;17.48;15.90;;;;;;;;;;5035717;28;20383;-78
2024/02/02 00:03:46;;;;;;;17.80;16.20;;;;;;;;;;5035708;28;20419;-78
2024/02/02 00:06:12;;;;;;;15.93;14.60;;;;;;;;;;5035964;28;20414;-78
2024/02/02 00:08:38;;;;;;;16.13;14.73;;;;;;;;;;5035539;28;20411;-78
2024/02/02 00:11:04;;;;;;;15.52;14.23;;;;;;;;;;5035571;28;20737;-78
2024/02/02 00:13:30;;;;;;;15.05;13.77;;;;;;;;;;5035373;28;20372;-78
2024/02/02 00:15:56;;;;;;;14.57;13.38;;;;;;;;;;5034840;28;20998;-78
2024/02/02 00:18:22;;;;;;;14.18;13.07;;;;;;;;;;5034297;28;20418;-77
2024/02/02 00:20:48;;;;;;;13.00;12.00;;;;;;;;;;5035068;28;20387;-78
2024/02/02 00:23:14;;;;;;;13.13;12.02;;;;;;;;;;5035280;28;20375;-77
2024/02/02 00:25:40;;;;;;;12.75;11.85;;;;;;;;;;5035060;28;20903;-78
2024/02/02 00:28:06;;;;;;;11.45;10.55;;;;;;;;;;5034506;28;20450;-78
2024/02/02 00:30:35;;;;;;;10.80;10.00;;;;;;;;;;5034755;28;20379;-77
2024/02/02 00:33:02;;;;;;;10.50;9.68;;;;;;;;;;5034371;28;20879;-78
2024/02/02 00:35:28;;;;;;;8.60;8.00;;;;;;;;;;5034640;28;20466;-78
2024/02/02 00:37:56;;;;;;;7.50;7.00;;;;;;;;;;5033695;28;20472;-77
2024/02/02 00:40:22;;;;;;;8.30;7.70;;;;;;;;;;5034656;28;20391;-77
2024/02/02 00:42:48;;;;;;;7.60;7.10;;;;;;;;;;5034726;28;20734;-78
2024/02/02 00:45:14;;;;;;;7.40;6.90;;;;;;;;;;5035214;28;20466;-78
2024/02/02 00:47:40;;;;;;;7.00;6.50;;;;;;;;;;5034730;28;20907;-78
2024/02/02 00:50:06;;;;;;;7.00;6.50;;;;;;;;;;5034606;28;20384;-78
2024/02/02 00:52:32;;;;;;;6.65;6.25;;;;;;;;;;5034778;28;20459;-78
2024/02/02 00:54:59;;;;;;;6.97;6.47;;;;;;;;;;5034529;28;20852;-77
2024/02/02 00:57:25;;;;;;;6.03;5.63;;;;;;;;;;5034469;28;20394;-78
2024/02/02 00:59:52;;;;;;;6.20;5.80;;;;;;;;;;5034110;28;20411;-77
2024/02/02 01:02:18;;;;;;;5.35;5.05;;;;;;;;;;5034306;28;20375;-78
2024/02/02 01:04:44;;;;;;;5.60;5.20;;;;;;;;;;5034016;28;20395;-78
2024/02/02 01:07:11;;;;;;;5.63;5.25;;;;;;;;;;5034250;28;20423;-78
2024/02/02 01:09:37;;;;;;;6.32;5.93;;;;;;;;;;5034017;28;20422;-78
2024/02/02 01:12:03;;;;;;;6.57;6.07;;;;;;;;;;5034061;28;20371;-78
2024/02/02 01:14:29;;;;;;;5.80;5.40;;;;;;;;;;5034046;28;20383;-77
2024/02/02 01:16:55;;;;;;;6.10;5.63;;;;;;;;;;5033006;28;20386;-78
2024/02/02 01:19:22;;;;;;;5.80;5.40;;;;;;;;;;5033514;28;20401;-77
2024/02/02 01:21:48;;;;;;;5.22;4.93;;;;;;;;;;5033883;28;20399;-78
2024/02/02 01:24:14;;;;;;;5.47;5.10;;;;;;;;;;5033480;28;20440;-78
2024/02/02 01:26:40;;;;;;;5.43;5.07;;;;;;;;;;5033861;28;20387;-78
2024/02/02 01:29:08;;;;;;;5.40;5.00;;;;;;;;;;5033542;28;20390;-77
2024/02/02 01:31:34;;;;;;;5.90;5.50;;;;;;;;;;5033731;28;20386;-78
2024/02/02 01:34:01;;;;;;;5.30;5.00;;;;;;;;;;5033371;28;20390;-77
2024/02/02 01:36:27;;;;;;;5.63;5.22;;;;;;;;;;5033215;28;20411;-78
2024/02/02 01:38:54;;;;;;;5.07;4.78;;;;;;;;;;5033186;28;20387;-77
2024/02/02 01:41:20;;;;;;;5.25;4.95;;;;;;;;;;5033075;28;20382;-77
2024/02/02 01:43:46;;;;;;;5.75;5.40;;;;;;;;;;5033256;28;20379;-78
2024/02/02 01:46:15;;;;;;;5.85;5.45;;;;;;;;;;5033057;28;20836;-78
2024/02/02 01:48:41;;;;;;;7.13;6.63;;;;;;;;;;5030771;28;20411;-77
2024/02/02 01:51:07;;;;;;;7.53;7.03;;;;;;;;;;5031634;28;20441;-78
2024/02/02 01:53:34;;;;;;;7.10;6.60;;;;;;;;;;5032336;28;20381;-77
2024/02/02 01:56:00;;;;;;;6.80;6.30;;;;;;;;;;5032720;28;20371;-77
2024/02/02 01:58:26;;;;;;;6.25;5.75;;;;;;;;;;5032847;28;20386;-78
2024/02/02 02:00:52;;;;;;;6.70;6.20;;;;;;;;;;5033308;28;20433;-77
2024/02/02 02:03:19;;;;;;;7.97;7.38;;;;;;;;;;5032606;28;20510;-78
2024/02/02 02:05:45;;;;;;;8.40;7.70;;;;;;;;;;5032734;28;20391;-78
2024/02/02 02:08:11;;;;;;;6.85;6.35;;;;;;;;;;5032468;28;20907;-78
2024/02/02 02:10:37;;;;;;;7.03;6.53;;;;;;;;;;5033003;28;20840;-77
2024/02/02 02:13:03;;;;;;;7.40;6.80;;;;;;;;;;5032849;28;20971;-77
2024/02/02 02:15:29;;;;;;;8.25;7.55;;;;;;;;;;5032977;28;20706;-78
2024/02/02 02:17:55;;;;;;;7.57;6.97;;;;;;;;;;5032965;28;20383;-77
2024/02/02 02:20:25;;;;;;;7.10;6.55;;;;;;;;;;5032846;28;20391;-77
2024/02/02 02:22:51;;;;;;;7.50;6.90;;;;;;;;;;5032953;28;20383;-78
2024/02/02 02:25:17;;;;;;;7.80;7.20;;;;;;;;;;5032696;28;20405;-77
2024/02/02 02:27:45;;;;;;;6.93;6.43;;;;;;;;;;5032423;28;20461;-78
2024/02/02 02:30:11;;;;;;;6.90;6.40;;;;;;;;;;5014724;28;20395;-77
2024/02/02 02:32:37;;;;;;;6.63;6.13;;;;;;;;;;5032539;28;20717;-78
2024/02/02 02:35:03;;;;;;;7.07;6.57;;;;;;;;;;5032519;28;20375;-77
2024/02/02 02:37:30;;;;;;;7.22;6.72;;;;;;;;;;5032936;28;20394;-78
2024/02/02 02:39:56;;;;;;;7.57;7.03;;;;;;;;;;5033695;28;20391;-77
2024/02/02 02:42:22;;;;;;;7.60;7.00;;;;;;;;;;5036840;28;20453;-78
2024/02/02 02:44:48;;;;;;;7.33;6.73;;;;;;;;;;5036832;28;20402;-78
2024/02/02 02:47:14;;;;;;;7.70;7.10;;;;;;;;;;5036408;28;20489;-77
2024/02/02 02:49:40;;;;;;;7.50;6.80;;;;;;;;;;5036300;28;20375;-78
2024/02/02 02:52:06;;;;;;;7.47;6.88;;;;;;;;;;5036141;28;20390;-78
2024/02/02 02:54:32;;;;;;;7.53;6.93;;;;;;;;;;5036281;28;20921;-77
2024/02/02 02:56:58;;;;;;;6.60;6.10;;;;;;;;;;5036013;28;20397;-77
2024/02/02 02:59:24;;;;;;;6.78;6.28;;;;;;;;;;5036181;28;20379;-78
2024/02/02 03:01:50;;;;;;;7.13;6.53;;;;;;;;;;5036017;28;20425;-78
2024/02/02 03:04:16;;;;;;;6.85;6.25;;;;;;;;;;5035888;28;20885;-78
2024/02/02 03:06:42;;;;;;;6.38;5.95;;;;;;;;;;5036258;28;20391;-77
2024/02/02 03:09:11;;;;;;;6.65;6.15;;;;;;;;;;5035425;28;20398;-78
2024/02/02 03:11:37;;;;;;;6.38;5.88;;;;;;;;;;5035830;28;20425;-77
2024/02/02 03:14:03;;;;;;;6.15;5.65;;;;;;;;;;5036265;28;20749;-78
2024/02/02 03:16:29;;;;;;;6.10;5.60;;;;;;;;;;5036157;28;20433;-77
2024/02/02 03:18:55;;;;;;;5.63;5.22;;;;;;;;;;5036009;28;20383;-77
2024/02/02 03:21:21;;;;;;;5.60;5.20;;;;;;;;;;5034915;28;20390;-77
2024/02/02 03:23:47;;;;;;;5.70;5.30;;;;;;;;;;5034775;28;20394;-77
2024/02/02 03:26:13;;;;;;;5.28;4.88;;;;;;;;;;5034685;28;20374;-77
2024/02/02 03:28:39;;;;;;;6.30;5.80;;;;;;;;;;5034429;28;20449;-76
2024/02/02 03:31:07;;;;;;;6.20;5.75;;;;;;;;;;5034534;28;20383;-77
2024/02/02 03:33:33;;;;;;;6.80;6.13;;;;;;;;;;5034409;28;20375;-77
2024/02/02 03:35:59;;;;;;;5.60;5.20;;;;;;;;;;5034414;28;20379;-77
2024/02/02 03:38:25;;;;;;;4.93;4.63;;;;;;;;;;5034215;28;20397;-77
2024/02/02 03:40:51;;;;;;;5.10;4.80;;;;;;;;;;5034294;28;20383;-77
2024/02/02 03:43:17;;;;;;;4.97;4.68;;;;;;;;;;5034072;28;20383;-77
2024/02/02 03:45:43;;;;;;;5.28;4.97;;;;;;;;;;5034069;28;20383;-77
2024/02/02 03:48:09;;;;;;;5.35;4.95;;;;;;;;;;5033945;28;20414;-77
2024/02/02 03:50:35;;;;;;;5.97;5.57;;;;;;;;;;5033539;28;20540;-77
2024/02/02 03:53:01;;;;;;;5.45;5.05;;;;;;;;;;5034043;28;20466;-77
2024/02/02 03:55:27;;;;;;;5.82;5.40;;;;;;;;;;5034373;28;20379;-77
2024/02/02 03:57:53;;;;;;;5.70;5.30;;;;;;;;;;5035451;28;20383;-77
2024/02/02 04:00:19;;;;;;;6.17;5.67;;;;;;;;;;5034055;28;20469;-77
2024/02/02 04:02:45;;;;;;;5.97;5.50;;;;;;;;;;5033802;28;21023;-77
2024/02/02 04:05:11;;;;;;;6.35;5.85;;;;;;;;;;5034041;28;20440;-77
2024/02/02 04:07:37;;;;;;;6.20;5.72;;;;;;;;;;5033750;28;20910;-77
2024/02/02 04:10:05;;;;;;;6.28;5.82;;;;;;;;;;5033849;28;20521;-77
2024/02/02 04:12:31;;;;;;;5.85;5.38;;;;;;;;;;5033702;28;20383;-77
2024/02/02 04:14:57;;;;;;;6.10;5.60;;;;;;;;;;5033559;28;20398;-77
2024/02/02 04:17:23;;;;;;;5.70;5.30;;;;;;;;;;5033466;28;20869;-77
2024/02/02 04:19:49;;;;;;;5.95;5.45;;;;;;;;;;5033316;28;20390;-76
2024/02/02 04:22:16;;;;;;;5.83;5.43;;;;;;;;;;5033421;28;20901;-77
2024/02/02 04:24:43;;;;;;;6.05;5.47;;;;;;;;;;5033217;28;20410;-77
2024/02/02 04:27:09;;;;;;;5.60;5.20;;;;;;;;;;5033365;28;20410;-77
2024/02/02 04:29:35;;;;;;;5.80;5.40;;;;;;;;;;5033462;28;20376;-77
2024/02/02 04:32:01;;;;;;;6.22;5.80;;;;;;;;;;5033747;28;20384;-76
2024/02/02 04:34:27;;;;;;;6.43;5.93;;;;;;;;;;5033550;28;20375;-77
2024/02/02 04:36:53;;;;;;;6.20;5.68;;;;;;;;;;5033348;28;20383;-77
2024/02/02 04:39:19;;;;;;;6.30;5.80;;;;;;;;;;5033132;28;20391;-77
2024/02/02 04:41:46;;;;;;;5.93;5.50;;;;;;;;;;5033334;28;20464;-77
2024/02/02 04:44:12;;;;;;;6.50;5.90;;;;;;;;;;5033209;28;20379;-77
2024/02/02 04:46:38;;;;;;;5.73;5.33;;;;;;;;;;5033138;28;20458;-76
2024/02/02 04:49:04;;;;;;;5.55;5.15;;;;;;;;;;5033052;28;20936;-77
2024/02/02 04:51:30;;;;;;;5.35;5.03;;;;;;;;;;5033172;28;20427;-77
2024/02/02 04:53:56;;;;;;;6.13;5.63;;;;;;;;;;5032885;28;20422;-77
2024/02/02 04:56:22;;;;;;;6.82;5.90;;;;;;;;;;5032747;28;20403;-76
2024/02/02 04:58:51;;;;;;;7.72;7.13;;;;;;;;;;5032773;28;20458;-77
2024/02/02 05:01:17;;;;;;;10.02;9.32;;;;;;;;;;5033184;28;20383;-77
2024/02/02 05:03:43;;;;;;;6.97;6.47;;;;;;;;;;5033694;28;20407;-78
2024/02/02 05:06:09;;;;;;;6.85;6.28;;;;;;;;;;5035246;28;20395;-79
2024/02/02 05:08:36;;;;;;;6.20;5.70;;;;;;;;;;5032462;28;20411;-79
2024/02/02 05:11:02;;;;;;;7.18;6.57;;;;;;;;;;5024221;28;20397;-79
2024/02/02 05:13:28;;;;;;;5.60;5.20;;;;;;;;;;5035151;28;20455;-79
2024/02/02 05:15:54;;;;;;;6.15;5.65;;;;;;;;;;5034784;28;20391;-79
2024/02/02 05:18:20;;;;;;;6.68;6.07;;;;;;;;;;5035234;28;20394;-79
2024/02/02 05:20:48;;;;;;;6.57;6.03;;;;;;;;;;5035123;28;20853;-79
2024/02/02 05:23:14;;;;;;;5.65;5.22;;;;;;;;;;5036068;28;20390;-79
2024/02/02 05:25:42;;;;;;;5.30;4.90;;;;;;;;;;5035631;28;20383;-80
2024/02/02 05:28:08;;;;;;;5.60;5.20;;;;;;;;;;5034577;28;20407;-79
2024/02/02 05:30:34;;;;;;;5.47;4.97;;;;;;;;;;5034551;28;20390;-79
2024/02/02 05:33:00;;;;;;;6.25;5.75;;;;;;;;;;5034577;28;20383;-79
2024/02/02 05:35:26;;;;;;;6.50;6.00;;;;;;;;;;5034603;28;20740;-80
2024/02/02 05:37:52;;;;;;;5.57;5.18;;;;;;;;;;5034693;28;20387;-80
2024/02/02 05:40:18;;;;;;;5.40;5.00;;;;;;;;;;5034975;28;20389;-79
2024/02/02 05:42:45;;;;;;;6.30;5.80;;;;;;;;;;5034195;28;20383;-79
2024/02/02 05:45:11;;;;;;;6.63;6.10;;;;;;;;;;5034559;28;20379;-79
2024/02/02 05:47:37;;;;;;;9.40;8.70;;;;;;;;;;5034926;28;20418;-79
2024/02/02 05:50:04;;;;;;;9.73;9.02;;;;;;;;;;5034694;28;20379;-79
2024/02/02 05:52:30;;;;;;;7.47;6.97;;;;;;;;;;5034141;28;20426;-80
2024/02/02 05:54:56;;;;;;;5.97;5.57;;;;;;;;;;5034168;28;20380;-79
2024/02/02 05:57:22;;;;;;;6.10;5.60;;;;;;;;;;5033986;28;20845;-78
2024/02/02 05:59:49;;;;;;;6.75;6.25;;;;;;;;;;5034715;28;20401;-79
2024/02/02 06:02:15;;;;;;;7.40;6.70;;;;;;;;;;5034362;28;20383;-78
2024/02/02 06:04:41;;;;;;;6.10;5.60;;;;;;;;;;5034125;28;20924;-79
2024/02/02 06:07:07;;;;;;;11.90;10.85;;;;;;;;;;5034089;28;20410;-79
2024/02/02 06:09:33;;;;;;;7.20;6.60;;;;;;;;;;5035612;28;20394;-78
2024/02/02 06:11:59;;;;;;;7.03;6.43;;;;;;;;;;5034915;28;20733;-79
2024/02/02 06:14:27;;;;;;;6.90;6.33;;;;;;;;;;5034195;28;20379;-79
2024/02/02 06:16:53;;;;;;;6.75;6.15;;;;;;;;;;5034917;28;20376;-79
2024/02/02 06:19:19;;;;;;;7.60;6.95;;;;;;;;;;5035226;28;20391;-78
2024/02/02 06:21:45;;;;;;;7.43;6.73;;;;;;;;;;5034836;28;20375;-79
2024/02/02 06:24:11;;;;;;;8.02;7.32;;;;;;;;;;5034566;28;20383;-79
2024/02/02 06:26:37;;;;;;;7.47;6.88;;;;;;;;;;5034509;28;20379;-78
2024/02/02 06:29:04;;;;;;;7.65;7.05;;;;;;;;;;5034010;28;20460;-78
2024/02/02 06:31:30;;;;;;;7.70;7.10;;;;;;;;;;5034309;28;20381;-79
2024/02/02 06:33:56;;;;;;;8.17;7.47;;;;;;;;;;5034001;28;20417;-78
2024/02/02 06:36:24;;;;;;;7.22;6.63;;;;;;;;;;5034321;28;20379;-78
2024/02/02 06:38:51;;;;;;;7.90;7.20;;;;;;;;;;5033671;28;20387;-79
2024/02/02 06:41:17;;;;;;;8.33;7.53;;;;;;;;;;5033969;28;20398;-78
2024/02/02 06:43:43;;;;;;;8.10;7.50;;;;;;;;;;5033520;28;20860;-79
2024/02/02 06:46:09;;;;;;;8.80;8.13;;;;;;;;;;5033642;28;20390;-79
2024/02/02 06:48:35;;;;;;;8.17;7.57;;;;;;;;;;5033938;28;20434;-79
2024/02/02 06:51:01;;;;;;;8.07;7.47;;;;;;;;;;5033870;28;20379;-79
2024/02/02 06:53:29;;;;;;;8.40;7.70;;;;;;;;;;5033675;28;20462;-79
2024/02/02 06:55:55;;;;;;;8.35;7.65;;;;;;;;;;5034071;28;20379;-79
2024/02/02 06:58:43;;;;;;;7.70;7.10;;;;;;;;;;5033857;28;20394;-79
2024/02/02 07:01:10;;;;;;;8.73;8.13;;;;;;;;;;5034130;28;20386;-79
2024/02/02 07:03:36;;;;;;;8.65;7.95;;;;;;;;;;5033404;28;20410;-79
2024/02/02 07:06:04;;;;;;;8.35;7.65;;;;;;;;;;5033778;28;20777;-78
2024/02/02 07:08:33;;;;;;;8.68;7.97;;;;;;;;;;5033233;28;20498;-79
2024/02/02 07:11:02;;;;;;;7.78;7.07;;;;;;;;;;5033674;28;20403;-78
2024/02/02 07:13:30;;;;;;;7.35;6.75;;;;;;;;;;5033708;28;21110;-78
2024/02/02 07:15:56;;;;;;;8.95;8.30;;;;;;;;;;5033400;28;20776;-79
2024/02/02 07:18:31;;;;;;;8.85;8.05;;;;;;;;;;5033230;28;20430;-79
2024/02/02 07:21:03;;;;;;;7.60;7.00;;;;;;;;;;5033398;28;20413;-78
2024/02/02 07:23:34;;;;;;;7.57;6.97;;;;;;;;;;5033397;28;20745;-79
2024/02/02 07:26:00;;;;;;;8.20;7.50;;;;;;;;;;5034191;28;20928;-79
2024/02/02 07:28:31;;;;;;;8.98;7.97;;;;;;;;;;5036823;28;20411;-79
2024/02/02 07:30:59;;;;;;;8.68;7.88;;;;;;;;;;5037368;28;20379;-79
2024/02/02 07:33:26;;;;;;;7.97;7.38;;;;;;;;;;5037224;28;20367;-79
2024/02/02 07:36:00;;;;;;;8.50;7.88;;;;;;;;;;5036639;28;20403;-79
2024/02/02 07:38:45;;;;;;;8.70;8.02;;;;;;;;;;5037041;28;20387;-78
2024/02/02 07:41:12;;;;;;;8.02;7.40;;;;;;;;;;5037177;28;20792;-79
2024/02/02 07:43:38;;;;;;;8.97;8.27;;;;;;;;;;5037240;28;20394;-79
2024/02/02 07:46:05;;;;;;;9.00;8.30;;;;;;;;;;5036719;28;20383;-79
2024/02/02 07:48:31;;;;;;;9.43;8.63;;;;;;;;;;5036850;28;20411;-79
2024/02/02 07:50:57;;;;;;;9.52;8.73;;;;;;;;;;5036828;28;20513;-79
2024/02/02 07:53:24;;;;;;;10.60;9.70;;;;;;;;;;5037086;28;20419;-79
2024/02/02 07:55:50;;;;;;;11.07;10.10;;;;;;;;;;5036829;28;20853;-78
2024/02/02 07:58:22;;;;;;;10.25;9.40;;;;;;;;;;5036562;28;20414;-78
2024/02/02 08:00:51;;;;;;;9.40;8.60;;;;;;;;;;5036154;28;20458;-79
2024/02/02 08:03:17;;;;;;;9.18;8.48;;;;;;;;;;5036125;28;20805;-78
2024/02/02 08:05:44;;;;;;;8.60;7.85;;;;;;;;;;5036478;28;20459;-79
2024/02/02 08:08:10;;;;;;;8.48;7.78;;;;;;;;;;5035669;28;20418;-79
2024/02/02 08:10:37;;;;;;;8.15;7.50;;;;;;;;;;5036903;28;20465;-79
2024/02/02 08:13:03;;;;;;;7.17;6.57;;;;;;;;;;5036506;28;20752;-79
2024/02/02 08:15:29;;;;;;;7.75;7.05;;;;;;;;;;5036690;28;20372;-79
2024/02/02 08:17:55;;;;;;;7.60;6.93;;;;;;;;;;5036434;28;20513;-79
2024/02/02 08:20:21;;;;;;;8.15;7.35;;;;;;;;;;5035989;28;20390;-79
2024/02/02 08:22:47;;;;;;;8.05;7.35;;;;;;;;;;5036472;28;20384;-79
2024/02/02 08:25:14;;;;;;;7.80;7.10;;;;;;;;;;5035678;28;20438;-79
2024/02/02 08:27:40;;;;;;;7.80;7.10;;;;;;;;;;5035746;28;20410;-79
2024/02/02 08:30:07;;;;;;;8.02;7.32;;;;;;;;;;5035575;28;20423;-79
2024/02/02 08:32:33;;;;;;;7.90;7.20;;;;;;;;;;5035645;28;20379;-80
2024/02/02 08:34:59;;;;;;;7.88;7.18;;;;;;;;;;5035301;28;20382;-78
2024/02/02 08:37:25;;;;;;;9.32;8.32;;;;;;;;;;5034687;28;20381;-79
2024/02/02 08:39:56;;;;;;;8.65;7.78;;;;;;;;;;5035987;28;20845;-79
2024/02/02 08:42:23;;;;;;;8.50;7.70;;;;;;;;;;5035489;28;20892;-78
2024/02/02 08:44:52;;;;;;;8.32;7.53;;;;;;;;;;5035763;28;20799;-79
2024/02/02 08:47:19;;;;;;;8.52;7.38;;;;;;;;;;5035607;28;20403;-78
2024/02/02 08:49:53;;;;;;;7.03;6.43;;;;;;;;;;5035678;28;21077;-79
2024/02/02 08:52:22;;;;;;;7.72;7.03;;;;;;;;;;5035646;28;20367;-79
2024/02/02 08:54:48;;;;;;;7.50;6.80;;;;;;;;;;5035541;28;20533;-79
2024/02/02 08:57:17;;;;;;;7.47;6.88;;;;;;;;;;5035355;28;20437;-78
2024/02/02 08:59:43;;;;;;;7.50;6.80;;;;;;;;;;5035942;28;20395;-79
2024/02/02 09:02:25;;;;;;;8.27;7.57;;;;;;;;;;5034721;28;20383;-79
2024/02/02 09:04:58;;;;;;;7.40;6.80;;;;;;;;;;5034785;28;20419;-78
2024/02/02 09:07:24;;;;;;;7.88;7.20;;;;;;;;;;5035126;28;20461;-78
2024/02/02 09:09:50;;;;;;;8.65;7.88;;;;;;;;;;5035357;28;20449;-78
2024/02/02 09:12:17;;;;;;;9.20;8.30;;;;;;;;;;5034886;28;20853;-78
2024/02/02 09:14:44;;;;;;;10.23;9.23;;;;;;;;;;5034631;28;20378;-79
2024/02/02 09:17:11;;;;;;;10.68;9.68;;;;;;;;;;5034492;28;20395;-79
2024/02/02 09:19:41;;;;;;;10.00;9.10;;;;;;;;;;5034198;28;20433;-78
2024/02/02 09:22:11;;;;;;;9.77;8.82;;;;;;;;;;5033083;28;20482;-79
2024/02/02 09:24:43;;;;;;;10.75;9.80;;;;;;;;;;5034737;28;20387;-79
2024/02/02 09:27:13;;;;;;;13.18;11.98;;;;;;;;;;5034157;28;20505;-79
2024/02/02 09:29:44;;;;;;;15.95;14.32;;;;;;;;;;5034546;28;20379;-79
2024/02/02 09:32:10;;;;;;;14.20;12.73;;;;;;;;;;5035530;28;20834;-79
2024/02/02 09:34:37;;;;;;;13.25;11.95;;;;;;;;;;5033906;28;20413;-79
2024/02/02 09:37:03;;;;;;;12.45;11.25;;;;;;;;;;5034725;28;20383;-80
2024/02/02 09:39:29;;;;;;;11.53;10.47;;;;;;;;;;5034263;28;20387;-80
2024/02/02 09:42:03;;;;;;;12.30;11.15;;;;;;;;;;5034509;28;20760;-78
2024/02/02 09:44:46;;;;;;;11.95;10.85;;;;;;;;;;5034494;28;20378;-79
2024/02/02 09:47:15;;;;;;;13.50;12.10;;;;;;;;;;5034460;28;20411;-79
2024/02/02 09:50:07;;;;;;;13.55;12.23;;;;;;;;;;5033847;28;20426;-79
2024/02/02 09:52:45;;;;;;;14.07;12.65;;;;;;;;;;5003863;28;20808;-78
2024/02/02 09:55:31;;;;;;;14.38;12.98;;;;;;;;;;5034397;28;20368;-79
2024/02/02 09:58:00;;;;;;;16.02;14.32;;;;;;;;;;5034346;28;20379;-79
2024/02/02 10:00:32;;;;;;;15.43;13.55;;;;;;;;;;5035361;28;20414;-80
2024/02/02 10:03:17;;;;;;;16.52;14.75;;;;;;;;;;5034614;28;20419;-79
2024/02/02 10:06:08;;;;;;;15.93;14.35;;;;;;;;;;5034127;28;20385;-79
2024/02/02 10:08:40;;;;;;;21.83;17.15;;;;;;;;;;5015907;28;20473;-78
2024/02/02 10:11:14;;;;;;;21.40;17.38;;;;;;;;;;5034173;28;20787;-78
2024/02/02 10:13:53;;;;;;;24.95;19.13;;;;;;;;;;5034446;28;20385;-78
2024/02/02 10:16:22;;;;;;;25.00;18.92;;;;;;;;;;5034876;28;20367;-78
2024/02/02 10:18:55;;;;;;;28.33;20.40;;;;;;;;;;5034455;28;20426;-78
2024/02/02 10:21:30;;;;;;;28.60;20.45;;;;;;;;;;5035638;28;20386;-78
2024/02/02 10:24:14;;;;;;;26.92;19.77;;;;;;;;;;5034453;28;20379;-78
2024/02/02 10:26:59;;;;;;;30.77;20.70;;;;;;;;;;5033815;28;20379;-79
2024/02/02 10:29:35;;;;;;;29.60;21.13;;;;;;;;;;5034592;28;20391;-78
2024/02/02 10:32:21;;;;;;;30.02;20.73;;;;;;;;;;5034888;28;20387;-78
2024/02/02 10:35:06;;;;;;;26.90;19.48;;;;;;;;;;5034692;28;20375;-78
2024/02/02 10:37:36;;;;;;;28.30;20.08;;;;;;;;;;5035068;28;20405;-78
2024/02/02 10:40:08;;;;;;;27.48;19.65;;;;;;;;;;5034772;28;20391;-78
2024/02/02 10:42:40;;;;;;;25.10;19.07;;;;;;;;;;5034115;28;20459;-79
2024/02/02 10:45:15;;;;;;;26.00;18.80;;;;;;;;;;5033104;28;20387;-78
2024/02/02 10:47:47;;;;;;;24.25;18.55;;;;;;;;;;5033328;28;20493;-78
2024/02/02 10:50:16;;;;;;;24.33;18.30;;;;;;;;;;5033765;28;20722;-78
2024/02/02 10:52:54;;;;;;;23.60;18.23;;;;;;;;;;5034231;28;20379;-78
2024/02/02 10:55:28;;;;;;;21.38;16.83;;;;;;;;;;5036093;28;20371;-78
2024/02/02 10:57:56;;;;;;;22.02;17.70;;;;;;;;;;5035378;28;20382;-79
2024/02/02 11:00:22;;;;;;;20.33;16.48;;;;;;;;;;5035576;28;20949;-79
2024/02/02 11:02:54;;;;;;;20.77;16.92;;;;;;;;;;4975236;28;1803587;-78
2024/02/02 11:05:25;;;;;;;18.13;15.85;;;;;;;;;;5036761;28;20470;-78
2024/02/02 11:08:06;;;;;;;19.65;16.25;;;;;;;;;;5034008;28;20407;-78
2024/02/02 11:10:34;;;;;;;19.13;16.10;;;;;;;;;;5035812;28;20393;-79
2024/02/02 11:13:29;;;;;;;18.17;15.23;;;;;;;;;;5039574;28;20395;-78
2024/02/02 11:16:01;;;;;;;17.05;15.20;;;;;;;;;;5020030;28;20404;-78
2024/02/02 11:18:30;;;;;;;18.17;14.98;;;;;;;;;;5039660;28;20776;-78
2024/02/02 11:21:17;;;;;;;15.60;13.90;;;;;;;;;;5036948;28;20780;-78
2024/02/02 11:23:57;;;;;;;16.80;14.10;;;;;;;;;;5037490;28;20425;-78
2024/02/02 11:26:28;;;;;;;13.53;12.23;;;;;;;;;;5037212;28;20797;-78
2024/02/02 11:29:10;;;;;;;14.43;12.93;;;;;;;;;;5037853;28;20807;-77
2024/02/02 11:31:42;;;;;;;14.30;12.90;;;;;;;;;;5037706;28;20382;-78
2024/02/02 11:34:11;;;;;;;13.57;12.27;;;;;;;;;;5038064;28;20382;-78
2024/02/02 11:36:53;;;;;;;13.98;12.57;;;;;;;;;;5037433;28;20383;-78
2024/02/02 11:39:56;;;;;;;12.82;11.63;;;;;;;;;;5038937;28;20378;-78
2024/02/02 11:42:23;;;;;;;12.97;11.77;;;;;;;;;;4976681;28;20392;-78
2024/02/02 11:44:50;;;;;;;12.88;11.57;;;;;;;;;;5028245;28;20390;-78
2024/02/02 11:47:20;;;;;;;13.45;12.15;;;;;;;;;;5038891;28;20492;-78
2024/02/02 11:49:49;;;;;;;12.90;11.65;;;;;;;;;;5039504;28;20433;-78
2024/02/02 11:52:35;;;;;;;14.13;12.68;;;;;;;;;;5039380;28;20382;-78
2024/02/02 11:55:22;;;;;;;13.57;12.25;;;;;;;;;;5038442;28;20391;-79
2024/02/02 11:57:53;;;;;;;12.63;11.43;;;;;;;;;;5038655;28;20436;-78
2024/02/02 12:00:34;;;;;;;12.65;10.85;;;;;;;;;;5038139;28;20411;-78
2024/02/02 12:03:13;;;;;;;11.60;10.60;;;;;;;;;;5038271;28;21181;-78
2024/02/02 12:05:55;;;;;;;10.32;9.43;;;;;;;;;;5038940;28;20865;-78
2024/02/02 12:08:43;;;;;;;10.25;9.35;;;;;;;;;;5038884;28;20455;-78
2024/02/02 12:11:11;;;;;;;10.20;9.30;;;;;;;;;;5039230;28;20379;-78
2024/02/02 12:13:38;;;;;;;10.00;9.20;;;;;;;;;;5037641;28;20379;-77
2024/02/02 12:16:04;;;;;;;9.32;8.52;;;;;;;;;;5036640;28;20398;-78
2024/02/02 12:18:31;;;;;;;11.77;10.68;;;;;;;;;;5037718;28;20375;-78
2024/02/02 12:20:57;;;;;;;37.38;33.50;;;;;;;;;;5038558;28;20383;-78
2024/02/02 12:23:23;;;;;;;43.10;38.38;;;;;;;;;;5038518;28;20386;-78
2024/02/02 12:25:49;;;;;;;50.10;44.63;;;;;;;;;;5039098;28;20491;-78
2024/02/02 12:28:15;;;;;;;74.75;65.07;;;;;;;;;;5037991;28;20407;-78
2024/02/02 12:30:41;;;;;;;46.47;40.90;;;;;;;;;;5037454;28;20470;-78
2024/02/02 12:33:07;;;;;;;17.60;16.02;;;;;;;;;;5037982;28;20383;-78
2024/02/02 12:35:33;;;;;;;17.77;16.17;;;;;;;;;;5038414;28;20383;-78
2024/02/02 12:37:59;;;;;;;38.83;34.67;;;;;;;;;;5037923;28;20379;-78
2024/02/02 12:40:25;;;;;;;35.63;31.85;;;;;;;;;;5037612;28;20879;-78
2024/02/02 12:42:52;;;;;;;38.63;32.05;;;;;;;;;;5037868;28;20375;-78
2024/02/02 12:45:18;;;;;;;42.23;31.53;;;;;;;;;;5037926;28;20387;-78
2024/02/02 12:47:44;;;;;;;23.35;18.92;;;;;;;;;;5037859;28;20410;-78
2024/02/02 12:50:17;;;;;;;17.93;15.60;;;;;;;;;;5037873;28;20451;-78
2024/02/02 12:52:44;;;;;;;21.10;16.00;;;;;;;;;;5038625;28;20376;-79
2024/02/02 12:55:10;;;;;;;12.38;11.18;;;;;;;;;;5037496;28;20718;-79
2024/02/02 12:57:36;;;;;;;8.90;8.10;;;;;;;;;;5038033;28;20395;-78
2024/02/02 13:00:03;;;;;;;9.60;8.70;;;;;;;;;;5037755;28;20430;-78
2024/02/02 13:02:29;;;;;;;10.20;9.30;;;;;;;;;;5037832;28;20383;-78
2024/02/02 13:04:56;;;;;;;8.07;7.38;;;;;;;;;;5037499;28;20411;-78
2024/02/02 13:07:22;;;;;;;5.38;4.97;;;;;;;;;;5037713;28;20414;-78
2024/02/02 13:09:51;;;;;;;6.05;5.55;;;;;;;;;;5037551;28;20393;-78
2024/02/02 13:12:29;;;;;;;5.50;5.10;;;;;;;;;;5037673;28;20462;-78
2024/02/02 13:15:18;;;;;;;5.88;5.38;;;;;;;;;;5038039;28;20386;-78
2024/02/02 13:17:44;;;;;;;5.43;4.93;;;;;;;;;;5037820;28;20383;-79
2024/02/02 13:20:11;;;;;;;5.22;4.75;;;;;;;;;;5037893;28;20433;-78
2024/02/02 13:22:38;;;;;;;4.93;4.53;;;;;;;;;;5037112;28;20413;-78
2024/02/02 13:25:09;;;;;;;5.35;4.95;;;;;;;;;;5036686;28;20407;-77
2024/02/02 13:27:38;;;;;;;5.03;4.63;;;;;;;;;;5036707;28;20764;-78
2024/02/02 13:30:12;;;;;;;4.90;4.50;;;;;;;;;;5036894;28;20379;-78
2024/02/02 13:32:38;;;;;;;4.82;4.05;;;;;;;;;;5036750;28;20375;-78
2024/02/02 13:35:08;;;;;;;5.80;4.05;;;;;;;;;;5036803;28;20447;-78
2024/02/02 13:37:42;;;;;;;4.72;4.32;;;;;;;;;;5037552;28;20733;-78
2024/02/02 13:40:09;;;;;;;4.25;3.95;;;;;;;;;;5037093;28;20387;-78
2024/02/02 13:42:36;;;;;;;4.35;3.95;;;;;;;;;;5036581;28;21105;-77
2024/02/02 13:45:09;;;;;;;4.20;3.90;;;;;;;;;;5036217;28;20391;-78
2024/02/02 13:47:36;;;;;;;4.10;3.80;;;;;;;;;;5035098;28;20410;-78
2024/02/02 13:50:06;;;;;;;3.85;3.55;;;;;;;;;;5036024;28;20375;-78
2024/02/02 13:52:33;;;;;;;4.28;3.97;;;;;;;;;;5036424;28;20375;-78
2024/02/02 13:54:59;;;;;;;3.90;3.60;;;;;;;;;;5036147;28;20375;-78
2024/02/02 13:57:25;;;;;;;4.60;4.20;;;;;;;;;;5036385;28;20857;-78
2024/02/02 13:59:55;;;;;;;4.82;4.43;;;;;;;;;;5036670;28;20387;-78
2024/02/02 14:02:24;;;;;;;4.28;3.97;;;;;;;;;;5036126;28;20386;-78
2024/02/02 14:04:50;;;;;;;4.10;3.80;;;;;;;;;;5035761;28;20419;-78
2024/02/02 14:07:17;;;;;;;4.20;3.90;;;;;;;;;;5036314;28;20394;-78
2024/02/02 14:09:43;;;;;;;3.53;3.22;;;;;;;;;;5033631;28;20454;-78
2024/02/02 14:12:09;;;;;;;4.20;3.80;;;;;;;;;;5032180;28;20387;-77
2024/02/02 14:14:36;;;;;;;5.03;3.55;;;;;;;;;;5033500;28;20382;-79
2024/02/02 14:17:03;;;;;;;3.78;3.47;;;;;;;;;;5036236;28;20891;-80
2024/02/02 14:19:29;;;;;;;4.30;3.90;;;;;;;;;;5036506;28;20383;-79
2024/02/02 14:22:03;;;;;;;4.20;3.90;;;;;;;;;;5036240;28;20848;-80
2024/02/02 14:24:30;;;;;;;3.35;3.05;;;;;;;;;;5037020;28;20797;-79
2024/02/02 14:26:56;;;;;;;3.42;3.17;;;;;;;;;;5036589;28;20383;-79
2024/02/02 14:29:24;;;;;;;3.45;3.15;;;;;;;;;;5035629;28;20403;-78
2024/02/02 14:31:57;;;;;;;3.50;3.20;;;;;;;;;;5035977;28;20391;-78
2024/02/02 14:34:23;;;;;;;3.90;3.60;;;;;;;;;;5035546;28;20476;-78
2024/02/02 14:36:49;;;;;;;3.83;3.53;;;;;;;;;;5039735;28;20392;-78
2024/02/02 14:39:22;;;;;;;3.65;3.35;;;;;;;;;;5039241;28;20375;-78
2024/02/02 14:41:51;;;;;;;3.80;3.40;;;;;;;;;;5039170;28;20386;-78
2024/02/02 14:44:18;;;;;;;4.47;3.30;;;;;;;;;;5037880;28;20375;-78